Time;durP1;ratioP1;P1;durP2;ratioP2;P2;SDS_P1;SDS_P2;PMS_P1;PMS_P2;Temp;Humidity;BMP_temperature;BMP_pressure;BME280_temperature;BME280_humidity;BME280_pressure;Samples;Min_cycle;Max_cycle;Signal;HPM_P1;HPM_P2
2023/05/29 00:00:18;;;;;;;12.40;6.93;;;17.80;76.90;;;;;;6250927;28;20132;-74
2023/05/29 00:03:20;;;;;;;11.38;6.68;;;17.80;77.70;;;;;;6250830;28;20107;-75
2023/05/29 00:06:22;;;;;;;12.18;6.90;;;17.80;78.10;;;;;;6250836;28;20042;-76
2023/05/29 00:09:24;;;;;;;11.07;6.95;;;17.70;77.90;;;;;;6250908;28;20060;-74
2023/05/29 00:12:26;;;;;;;11.27;6.57;;;17.70;77.90;;;;;;6251190;28;20502;-75
2023/05/29 00:15:30;;;;;;;12.40;7.30;;;17.70;77.60;;;;;;6250810;28;20048;-76
2023/05/29 00:18:32;;;;;;;13.25;7.90;;;17.70;77.60;;;;;;6250761;28;20037;-76
2023/05/29 00:21:34;;;;;;;14.18;8.10;;;17.60;77.60;;;;;;6250525;28;20053;-76
2023/05/29 00:24:37;;;;;;;13.85;7.15;;;17.50;78.00;;;;;;6251095;28;20050;-76
2023/05/29 00:27:39;;;;;;;12.27;6.90;;;17.30;78.80;;;;;;6250566;28;20049;-76
2023/05/29 00:30:42;;;;;;;11.77;7.15;;;17.30;79.00;;;;;;6250429;28;20045;-75
2023/05/29 00:33:44;;;;;;;11.35;7.05;;;17.20;79.50;;;;;;6249919;28;20045;-75
2023/05/29 00:36:47;;;;;;;10.43;6.35;;;17.10;79.90;;;;;;6250284;28;20049;-75
2023/05/29 00:39:49;;;;;;;11.43;7.10;;;17.10;80.50;;;;;;6250072;28;20049;-74
2023/05/29 00:42:51;;;;;;;10.98;7.03;;;17.10;80.00;;;;;;6250026;28;20069;-74
2023/05/29 00:45:54;;;;;;;10.43;6.85;;;17.10;80.20;;;;;;6250109;28;20053;-76
2023/05/29 00:48:57;;;;;;;12.60;6.40;;;17.10;80.10;;;;;;6250021;28;20046;-76
2023/05/29 00:51:59;;;;;;;13.18;7.05;;;17.10;80.10;;;;;;6249975;28;20491;-76
2023/05/29 00:55:03;;;;;;;12.20;7.30;;;17.00;80.60;;;;;;6249562;28;20123;-74
2023/05/29 00:58:06;;;;;;;11.30;7.00;;;17.00;80.10;;;;;;6249635;28;20057;-76
2023/05/29 01:01:12;;;;;;;;;;;16.90;80.50;;;;;;6250073;28;20056;-74
2023/05/29 01:04:16;;;;;;;11.77;6.75;;;16.70;81.40;;;;;;6249733;28;19929;-75
2023/05/29 01:07:18;;;;;;;11.25;6.60;;;16.70;81.60;;;;;;6249697;28;20045;-76
2023/05/29 01:10:20;;;;;;;10.68;6.07;;;16.60;82.00;;;;;;6249533;28;20045;-76
2023/05/29 01:13:28;;;;;;;12.43;6.28;;;16.50;82.30;;;;;;6249263;28;20057;-75
2023/05/29 01:16:41;;;;;;;9.65;5.90;;;16.50;82.60;;;;;;6252818;28;20120;-75
2023/05/29 01:20:20;;;;;;;11.73;5.93;;;16.50;82.70;;;;;;6251045;28;20052;-75
2023/05/29 01:23:53;;;;;;;9.98;6.50;;;16.50;82.60;;;;;;6204795;28;20398;-74
2023/05/29 01:27:01;;;;;;;11.15;6.32;;;16.40;82.70;;;;;;6249383;28;20056;-76
2023/05/29 01:30:05;;;;;;;9.35;5.72;;;16.20;82.60;;;;;;6249060;28;20049;-74
2023/05/29 01:33:07;;;;;;;12.75;6.72;;;16.00;83.70;;;;;;6248554;28;20077;-74
2023/05/29 01:36:10;;;;;;;10.73;6.03;;;15.90;84.30;;;;;;6248673;28;20491;-74
2023/05/29 01:39:13;;;;;;;13.40;6.90;;;15.90;84.70;;;;;;6248833;28;20483;-74
2023/05/29 01:42:17;;;;;;;11.82;6.40;;;16.00;84.20;;;;;;6249445;28;20045;-77
2023/05/29 01:45:18;;;;;;;;;;;16.00;83.70;;;;;;6252232;28;20056;-74
2023/05/29 01:48:20;;;;;;;12.73;6.30;;;16.00;84.00;;;;;;6249615;28;19905;-76
2023/05/29 01:51:22;;;;;;;11.18;6.05;;;16.00;84.50;;;;;;6248813;28;20049;-76
2023/05/29 01:54:25;;;;;;;13.40;6.68;;;15.90;84.80;;;;;;6248757;28;20056;-76
2023/05/29 01:57:29;;;;;;;11.38;5.60;;;15.90;85.00;;;;;;6248410;28;20045;-74
2023/05/29 02:00:32;;;;;;;10.90;6.07;;;15.80;85.30;;;;;;6248965;28;20049;-75
2023/05/29 02:03:34;;;;;;;11.05;5.70;;;15.80;85.40;;;;;;6248642;28;20077;-74
2023/05/29 02:06:36;;;;;;;11.57;6.10;;;15.70;85.20;;;;;;6248452;28;20049;-74
2023/05/29 02:09:38;;;;;;;12.13;6.25;;;15.70;85.50;;;;;;6248506;28;20423;-74
2023/05/29 02:12:41;;;;;;;10.45;6.57;;;15.60;85.70;;;;;;6247967;28;20426;-74
2023/05/29 02:15:43;;;;;;;11.00;5.70;;;15.50;85.90;;;;;;6248005;28;20376;-75
2023/05/29 02:18:45;;;;;;;11.18;6.18;;;15.30;86.40;;;;;;6248051;28;20077;-74
2023/05/29 02:21:49;;;;;;;11.13;5.78;;;15.30;87.10;;;;;;6247932;28;20064;-75
2023/05/29 02:24:50;;;;;;;;;;;15.30;87.00;;;;;;6248409;28;20053;-74
2023/05/29 02:27:53;;;;;;;13.35;6.25;;;15.40;87.10;;;;;;6247924;28;19921;-76
2023/05/29 02:30:55;;;;;;;10.80;6.38;;;15.30;86.80;;;;;;6248149;28;20045;-75
2023/05/29 02:33:57;;;;;;;11.65;5.90;;;15.20;87.50;;;;;;6248033;28;20512;-75
2023/05/29 02:36:59;;;;;;;10.55;6.15;;;15.20;88.40;;;;;;6248084;28;20060;-74
2023/05/29 02:40:01;;;;;;;10.15;5.45;;;15.30;88.10;;;;;;6247696;28;20049;-75
2023/05/29 02:43:05;;;;;;;9.45;5.28;;;15.20;88.00;;;;;;6257058;28;20530;-74
2023/05/29 02:46:07;;;;;;;10.82;6.18;;;15.20;88.40;;;;;;6257131;28;20041;-76
2023/05/29 02:49:09;;;;;;;11.05;6.25;;;15.10;88.70;;;;;;6258681;28;20052;-75
2023/05/29 02:52:11;;;;;;;10.32;5.78;;;15.10;88.40;;;;;;6260027;28;20053;-75
2023/05/29 02:55:13;;;;;;;10.75;5.93;;;15.10;88.70;;;;;;6260516;28;20056;-75
2023/05/29 02:58:17;;;;;;;11.98;5.38;;;15.10;89.40;;;;;;6261742;28;20053;-75
2023/05/29 03:01:19;;;;;;;12.70;5.82;;;15.10;89.60;;;;;;6250571;28;20100;-74
2023/05/29 03:04:20;;;;;;;12.40;6.40;;;15.00;90.10;;;;;;6247582;28;20041;-76
2023/05/29 03:07:22;;;;;;;17.23;9.52;;;15.00;90.30;;;;;;6247550;28;20049;-76
2023/05/29 03:10:25;;;;;;;10.38;6.32;;;15.00;90.50;;;;;;6248586;28;20054;-74
2023/05/29 03:13:29;;;;;;;11.15;5.47;;;14.90;90.70;;;;;;6247942;28;20057;-75
2023/05/29 03:16:31;;;;;;;9.60;5.55;;;14.90;90.70;;;;;;6248825;28;20510;-75
2023/05/29 03:19:33;;;;;;;12.13;5.57;;;14.90;90.70;;;;;;6252482;28;20529;-76
2023/05/29 03:22:35;;;;;;;11.50;5.80;;;14.80;90.60;;;;;;6251645;28;20399;-75
2023/05/29 03:25:38;;;;;;;9.55;5.60;;;14.70;90.60;;;;;;6251770;28;20058;-75
2023/05/29 03:28:41;;;;;;;10.70;6.00;;;14.60;90.80;;;;;;6251718;28;20192;-75
2023/05/29 03:31:43;;;;;;;11.40;5.43;;;14.60;90.90;;;;;;6251969;28;20042;-74
2023/05/29 03:34:44;;;;;;;10.52;5.70;;;14.70;91.10;;;;;;6251405;28;20402;-75
2023/05/29 03:37:46;;;;;;;10.60;6.32;;;14.60;91.40;;;;;;6258337;28;20053;-75
2023/05/29 03:40:48;;;;;;;11.00;5.88;;;14.60;91.10;;;;;;6255437;28;20046;-75
2023/05/29 03:43:51;;;;;;;11.23;5.82;;;14.50;91.00;;;;;;6253737;28;20410;-75
2023/05/29 03:46:53;;;;;;;9.68;5.65;;;14.40;90.90;;;;;;6251596;28;20415;-75
2023/05/29 03:49:55;;;;;;;9.80;5.70;;;14.30;91.40;;;;;;6251541;28;20060;-75
2023/05/29 03:52:57;;;;;;;12.05;5.70;;;14.20;91.30;;;;;;6251227;28;20543;-76
2023/05/29 03:55:59;;;;;;;9.52;5.32;;;14.00;91.80;;;;;;6251762;28;20045;-76
2023/05/29 03:59:02;;;;;;;9.57;5.40;;;14.00;91.70;;;;;;6250868;28;20403;-76
2023/05/29 04:02:04;;;;;;;11.45;6.15;;;13.90;92.00;;;;;;6251079;28;20514;-75
2023/05/29 04:05:07;;;;;;;10.95;5.80;;;14.00;92.20;;;;;;6250762;28;20148;-76
2023/05/29 04:08:10;;;;;;;8.67;5.40;;;14.10;92.40;;;;;;6250678;28;20052;-75
2023/05/29 04:11:13;;;;;;;12.20;5.93;;;14.10;91.90;;;;;;6251148;28;20049;-76
2023/05/29 04:14:16;;;;;;;10.98;5.53;;;14.20;91.90;;;;;;6253801;28;20140;-75
2023/05/29 04:17:18;;;;;;;10.90;5.90;;;14.20;92.00;;;;;;6259170;28;20045;-76
2023/05/29 04:20:20;;;;;;;13.18;5.63;;;14.20;92.20;;;;;;6251186;28;20050;-76
2023/05/29 04:23:22;;;;;;;10.38;5.57;;;14.20;92.20;;;;;;6260932;28;20159;-75
2023/05/29 04:26:25;;;;;;;10.05;5.43;;;14.20;92.50;;;;;;6266269;28;20054;-76
2023/05/29 04:29:30;;;;;;;9.80;5.38;;;14.10;92.80;;;;;;6269577;28;20054;-77
2023/05/29 04:32:32;;;;;;;11.57;6.28;;;14.20;93.10;;;;;;6262101;28;20495;-74
2023/05/29 04:35:34;;;;;;;11.32;5.85;;;14.30;93.10;;;;;;6252891;28;20049;-76
2023/05/29 04:38:36;;;;;;;10.75;5.65;;;14.40;93.10;;;;;;6251545;28;20052;-75
2023/05/29 04:41:40;;;;;;;10.40;5.38;;;14.40;93.10;;;;;;6251280;28;20399;-76
2023/05/29 04:44:44;;;;;;;9.82;5.90;;;14.40;93.20;;;;;;6258565;28;20077;-75
2023/05/29 04:47:45;;;;;;;;;;;14.40;93.30;;;;;;6258766;28;20041;-76
2023/05/29 04:50:49;;;;;;;11.65;5.63;;;14.50;93.50;;;;;;6250940;28;19921;-75
2023/05/29 04:53:52;;;;;;;9.90;5.80;;;14.50;93.40;;;;;;6254816;28;20061;-76
2023/05/29 04:56:54;;;;;;;10.07;5.85;;;14.50;93.60;;;;;;6250317;28;20045;-77
2023/05/29 04:59:58;;;;;;;10.52;5.93;;;14.30;93.90;;;;;;6249868;28;20055;-76
2023/05/29 05:02:59;;;;;;;;;;;14.30;93.90;;;;;;6232576;28;20045;-75
2023/05/29 05:06:03;;;;;;;9.25;5.47;;;14.30;94.10;;;;;;6249533;28;19921;-76
2023/05/29 05:09:05;;;;;;;10.65;6.10;;;14.20;94.40;;;;;;6249278;28;20049;-76
2023/05/29 05:12:07;;;;;;;10.70;5.60;;;14.30;94.40;;;;;;6249032;28;20144;-75
2023/05/29 05:15:11;;;;;;;12.20;5.75;;;14.30;94.30;;;;;;6248992;28;20046;-74
2023/05/29 05:18:13;;;;;;;10.25;5.90;;;14.40;94.50;;;;;;6249163;28;20049;-75
2023/05/29 05:21:15;;;;;;;11.90;6.15;;;14.40;94.60;;;;;;6248857;28;20503;-76
2023/05/29 05:24:17;;;;;;;11.10;6.03;;;14.50;94.70;;;;;;6231402;28;20414;-74
2023/05/29 05:27:19;;;;;;;9.57;5.60;;;14.50;94.70;;;;;;6248781;28;20487;-74
2023/05/29 05:30:22;;;;;;;11.73;5.82;;;14.60;94.70;;;;;;6248954;28;20056;-73
2023/05/29 05:33:24;;;;;;;9.82;5.60;;;14.60;94.70;;;;;;6248702;28;20053;-75
2023/05/29 05:36:26;;;;;;;10.35;5.75;;;14.70;94.80;;;;;;6248303;28;20057;-76
2023/05/29 05:39:27;;;;;;;9.07;5.28;;;14.70;94.50;;;;;;6248353;28;20049;-76
2023/05/29 05:42:29;;;;;;;11.00;5.97;;;14.80;94.50;;;;;;6248950;28;20045;-75
2023/05/29 05:45:33;;;;;;;12.40;5.45;;;14.90;94.30;;;;;;6248122;28;20045;-75
2023/05/29 05:48:34;;;;;;;13.43;5.88;;;15.00;94.50;;;;;;6248483;28;20045;-75
2023/05/29 05:51:36;;;;;;;11.57;5.70;;;15.00;94.20;;;;;;6248455;28;20045;-75
2023/05/29 05:54:38;;;;;;;12.65;5.47;;;15.10;93.50;;;;;;6248967;28;20065;-75
2023/05/29 05:57:40;;;;;;;10.85;5.45;;;15.20;93.10;;;;;;6248440;28;20045;-74
2023/05/29 06:00:45;;;;;;;8.95;5.35;;;15.20;93.40;;;;;;6248245;28;20053;-75
2023/05/29 06:03:47;;;;;;;11.35;5.68;;;15.30;93.60;;;;;;6248804;28;20060;-75
2023/05/29 06:06:49;;;;;;;12.95;5.60;;;15.40;93.50;;;;;;6247885;28;20513;-74
2023/05/29 06:09:51;;;;;;;9.38;5.38;;;15.50;93.40;;;;;;6248251;28;20064;-74
2023/05/29 06:12:53;;;;;;;9.20;5.30;;;15.50;93.10;;;;;;6247986;28;20045;-74
2023/05/29 06:15:56;;;;;;;10.77;5.60;;;15.50;93.50;;;;;;6248011;28;20055;-75
2023/05/29 06:18:58;;;;;;;10.40;5.65;;;15.60;93.60;;;;;;6248038;28;20487;-74
2023/05/29 06:22:00;;;;;;;10.88;5.47;;;15.70;93.50;;;;;;6249522;28;20057;-76
2023/05/29 06:25:02;;;;;;;8.82;4.80;;;15.80;92.90;;;;;;6250347;28;20049;-77
2023/05/29 06:28:05;;;;;;;9.02;5.60;;;15.80;93.00;;;;;;6255025;28;20041;-75
2023/05/29 06:31:08;;;;;;;10.45;5.18;;;15.90;93.40;;;;;;6251156;28;20046;-75
2023/05/29 06:34:10;;;;;;;8.68;4.63;;;16.00;93.30;;;;;;6247772;28;20057;-76
2023/05/29 06:37:12;;;;;;;13.38;5.70;;;16.00;93.30;;;;;;6247866;28;20042;-76
2023/05/29 06:40:15;;;;;;;9.10;5.10;;;16.10;92.60;;;;;;6247635;28;20045;-76
2023/05/29 06:43:17;;;;;;;10.73;5.45;;;16.20;92.50;;;;;;6247986;28;20046;-75
2023/05/29 06:46:20;;;;;;;12.20;5.32;;;16.20;92.40;;;;;;6247603;28;20053;-75
2023/05/29 06:49:22;;;;;;;9.85;4.60;;;16.40;91.90;;;;;;6247237;28;20380;-74
2023/05/29 06:52:24;;;;;;;9.63;4.60;;;16.40;91.00;;;;;;6249944;28;20060;-74
2023/05/29 06:55:26;;;;;;;8.85;4.78;;;16.50;90.90;;;;;;6252491;28;20055;-74
2023/05/29 06:58:28;;;;;;;10.50;5.30;;;16.60;91.40;;;;;;6252614;28;20071;-74
2023/05/29 07:01:31;;;;;;;10.15;5.25;;;16.70;90.80;;;;;;6253332;28;20045;-74
2023/05/29 07:04:33;;;;;;;9.07;4.90;;;16.60;90.00;;;;;;6252481;28;20041;-75
2023/05/29 07:07:35;;;;;;;9.82;5.40;;;16.60;90.30;;;;;;6252427;28;20045;-74
2023/05/29 07:10:37;;;;;;;9.70;4.90;;;16.40;90.40;;;;;;6254938;28;20056;-75
2023/05/29 07:13:39;;;;;;;9.02;4.55;;;16.70;90.80;;;;;;6252874;28;20053;-74
2023/05/29 07:16:42;;;;;;;10.80;5.28;;;16.80;90.10;;;;;;6253306;28;20051;-74
2023/05/29 07:19:44;;;;;;;10.15;5.45;;;16.90;90.20;;;;;;6253921;28;20072;-76
2023/05/29 07:22:46;;;;;;;11.98;5.68;;;16.90;89.20;;;;;;6254989;28;20049;-74
2023/05/29 07:25:48;;;;;;;9.98;5.20;;;17.00;89.40;;;;;;6253846;28;20124;-75
2023/05/29 07:28:50;;;;;;;9.80;4.88;;;17.00;89.80;;;;;;6252345;28;20395;-74
2023/05/29 07:31:54;;;;;;;9.23;5.35;;;17.10;90.10;;;;;;6253563;28;20052;-76
2023/05/29 07:34:55;;;;;;;10.48;5.32;;;17.20;89.70;;;;;;6252876;28;20056;-76
2023/05/29 07:37:57;;;;;;;11.57;5.32;;;17.20;89.60;;;;;;6254192;28;20049;-76
2023/05/29 07:40:59;;;;;;;9.73;4.97;;;17.30;89.80;;;;;;6255197;28;20525;-76
2023/05/29 07:44:01;;;;;;;12.05;5.57;;;17.40;90.30;;;;;;6252921;28;20394;-76
2023/05/29 07:47:05;;;;;;;10.13;5.47;;;17.40;90.30;;;;;;6251968;28;20045;-74
2023/05/29 07:50:07;;;;;;;12.63;5.88;;;17.50;90.20;;;;;;6251524;28;20045;-75
2023/05/29 07:53:09;;;;;;;9.18;5.43;;;17.50;90.70;;;;;;6251573;28;20057;-74
2023/05/29 07:56:11;;;;;;;11.02;5.50;;;17.60;90.60;;;;;;6251182;28;20407;-74
2023/05/29 07:59:14;;;;;;;8.85;5.35;;;17.70;90.60;;;;;;6251466;28;20057;-73
2023/05/29 08:02:17;;;;;;;11.82;5.15;;;17.80;91.10;;;;;;6250979;28;20085;-75
2023/05/29 08:05:22;;;;;;;10.75;5.13;;;17.90;90.50;;;;;;6250971;28;20057;-75
2023/05/29 08:08:24;;;;;;;10.23;5.47;;;18.00;90.60;;;;;;6251272;28;20045;-73
2023/05/29 08:11:26;;;;;;;8.85;4.80;;;18.10;90.40;;;;;;6250886;28;20049;-75
2023/05/29 08:14:28;;;;;;;8.25;4.85;;;18.10;90.00;;;;;;6250616;28;20049;-75
2023/05/29 08:17:31;;;;;;;11.00;5.60;;;18.20;90.40;;;;;;6250554;28;20474;-75
2023/05/29 08:20:34;;;;;;;10.07;5.07;;;18.30;90.20;;;;;;6250913;28;20047;-74
2023/05/29 08:23:36;;;;;;;9.77;5.60;;;18.40;90.00;;;;;;6250277;28;20054;-76
2023/05/29 08:26:38;;;;;;;12.23;5.32;;;18.50;89.00;;;;;;6250366;28;20029;-75
2023/05/29 08:29:40;;;;;;;9.82;5.20;;;18.60;89.30;;;;;;6252272;28;20455;-75
2023/05/29 08:32:43;;;;;;;10.95;5.22;;;18.70;89.70;;;;;;6259896;28;20065;-75
2023/05/29 08:35:45;;;;;;;9.43;5.47;;;18.80;89.00;;;;;;6256205;28;20411;-75
2023/05/29 08:38:47;;;;;;;12.88;5.32;;;18.90;88.80;;;;;;6233116;28;20056;-75
2023/05/29 08:42:00;;;;;;;10.88;5.45;;;19.00;88.10;;;;;;6250500;28;20049;-73
2023/05/29 08:45:07;;;;;;;;;;;19.10;88.40;;;;;;6250560;28;20052;-76
2023/05/29 08:48:11;;;;;;;9.80;5.25;;;19.20;86.00;;;;;;6250426;28;19956;-74
2023/05/29 08:51:13;;;;;;;11.45;5.30;;;19.30;86.10;;;;;;6250134;28;20045;-76
2023/05/29 08:54:15;;;;;;;11.70;5.30;;;19.40;85.80;;;;;;6249927;28;20045;-74
2023/05/29 08:57:17;;;;;;;7.37;4.40;;;19.60;84.50;;;;;;6249861;28;20049;-76
2023/05/29 09:00:22;;;;;;;9.30;4.90;;;19.60;84.10;;;;;;6250239;28;20620;-75
2023/05/29 09:03:25;;;;;;;9.25;4.80;;;19.80;84.20;;;;;;6249795;28;20053;-75
2023/05/29 09:06:27;;;;;;;11.57;5.13;;;19.80;83.10;;;;;;6250286;28;20045;-75
2023/05/29 09:09:31;;;;;;;7.57;4.90;;;19.90;81.80;;;;;;6250296;28;20099;-74
2023/05/29 09:12:33;;;;;;;9.40;4.70;;;20.10;81.10;;;;;;6249869;28;20083;-74
2023/05/29 09:15:36;;;;;;;8.18;4.68;;;20.20;80.40;;;;;;6249463;28;20053;-74
2023/05/29 09:18:41;;;;;;;9.68;4.85;;;20.30;78.80;;;;;;6248981;28;20045;-75
2023/05/29 09:21:43;;;;;;;8.77;4.45;;;20.40;75.60;;;;;;6248412;28;20416;-75
2023/05/29 09:24:50;;;;;;;9.45;4.72;;;20.50;75.30;;;;;;6248636;28;20163;-76
2023/05/29 09:27:55;;;;;;;8.77;4.68;;;20.70;73.30;;;;;;6248844;28;20049;-74
2023/05/29 09:30:58;;;;;;;10.10;5.20;;;20.90;74.30;;;;;;6248816;28;20049;-73
2023/05/29 09:34:04;;;;;;;7.22;4.30;;;21.00;75.90;;;;;;6248851;28;20065;-75
2023/05/29 09:37:08;;;;;;;7.88;4.72;;;21.10;73.30;;;;;;6249019;28;20057;-74
2023/05/29 09:40:13;;;;;;;8.45;4.53;;;21.20;72.60;;;;;;6248766;28;20499;-73
2023/05/29 09:43:17;;;;;;;8.90;4.68;;;21.20;73.70;;;;;;6231139;28;20045;-75
2023/05/29 09:46:20;;;;;;;11.70;5.18;;;21.20;74.10;;;;;;6248807;28;20049;-74
2023/05/29 09:49:24;;;;;;;8.20;4.50;;;21.40;74.00;;;;;;6248102;28;20380;-75
2023/05/29 09:52:25;;;;;;;7.78;4.72;;;21.40;72.90;;;;;;6248750;28;20054;-74
2023/05/29 09:55:31;;;;;;;10.32;4.43;;;21.40;71.80;;;;;;6249930;28;20385;-74
2023/05/29 09:58:35;;;;;;;9.50;4.45;;;21.50;72.00;;;;;;6248328;28;20049;-76
2023/05/29 10:01:39;;;;;;;7.28;4.15;;;21.50;72.10;;;;;;6248179;28;20049;-74
2023/05/29 10:04:43;;;;;;;10.77;4.50;;;21.60;71.30;;;;;;6248480;28;20052;-73
2023/05/29 10:07:48;;;;;;;8.43;4.13;;;21.60;70.60;;;;;;6248854;28;20127;-74
2023/05/29 10:10:57;;;;;;;6.68;4.05;;;21.70;70.80;;;;;;6248150;28;20049;-75
2023/05/29 10:14:00;;;;;;;9.45;4.10;;;21.80;69.70;;;;;;6248598;28;20079;-75
2023/05/29 10:17:08;;;;;;;8.35;3.90;;;21.90;69.10;;;;;;6248037;28;20045;-76
2023/05/29 10:20:15;;;;;;;7.75;3.95;;;22.00;67.00;;;;;;6247721;28;20046;-75
2023/05/29 10:23:19;;;;;;;10.43;3.80;;;22.10;67.00;;;;;;6247991;28;20057;-75
2023/05/29 10:26:23;;;;;;;8.85;3.90;;;22.10;67.10;;;;;;6251507;28;20491;-75
2023/05/29 10:29:31;;;;;;;9.05;4.13;;;22.10;66.80;;;;;;6248132;28;20046;-74
2023/05/29 10:32:45;;;;;;;12.25;4.70;;;22.20;66.30;;;;;;6248147;28;20061;-74
2023/05/29 10:35:54;;;;;;;9.18;3.95;;;22.20;66.00;;;;;;6248731;28;20398;-73
2023/05/29 10:38:56;;;;;;;10.63;3.90;;;22.30;65.70;;;;;;6249453;28;20046;-75
2023/05/29 10:41:59;;;;;;;8.05;3.72;;;22.40;64.90;;;;;;6247682;28;20539;-75
2023/05/29 10:45:01;;;;;;;;;;;22.40;63.70;;;;;;6248274;28;20581;-73
2023/05/29 10:48:40;;;;;;;8.27;3.63;;;22.40;63.00;;;;;;6247507;28;19928;-72
2023/05/29 10:51:43;;;;;;;9.73;3.75;;;22.50;63.10;;;;;;6247510;28;20099;-75
2023/05/29 10:54:53;;;;;;;8.82;3.72;;;22.50;64.20;;;;;;6248550;28;20085;-73
2023/05/29 10:57:57;;;;;;;8.80;3.72;;;22.60;61.90;;;;;;6247448;28;20419;-73
2023/05/29 11:00:58;;;;;;;11.88;6.07;;;22.60;60.80;;;;;;6247350;28;20388;-73
2023/05/29 11:04:31;;;;;;;10.23;4.85;;;22.70;61.70;;;;;;6262089;28;20107;-75
2023/05/29 11:07:35;;;;;;;7.93;4.38;;;22.70;62.10;;;;;;6271309;28;20045;-74
2023/05/29 11:10:57;;;;;;;7.85;3.50;;;22.80;62.10;;;;;;6268191;28;20050;-75
2023/05/29 11:14:05;;;;;;;7.07;3.63;;;22.90;61.90;;;;;;6248714;28;20049;-75
2023/05/29 11:17:07;;;;;;;7.18;3.58;;;23.00;62.20;;;;;;6268501;28;20045;-75
2023/05/29 11:20:25;;;;;;;6.88;3.60;;;23.00;61.70;;;;;;6248715;28;20046;-76
2023/05/29 11:23:33;;;;;;;8.07;3.88;;;23.10;60.70;;;;;;6247491;28;20057;-74
2023/05/29 11:26:38;;;;;;;6.05;3.63;;;23.20;60.60;;;;;;6247247;28;20483;-75
2023/05/29 11:29:40;;;;;;;7.68;3.58;;;23.30;59.70;;;;;;6229535;28;20511;-75
2023/05/29 11:32:45;;;;;;;8.82;3.75;;;23.30;57.60;;;;;;6247101;28;20056;-75
2023/05/29 11:35:48;;;;;;;6.47;3.30;;;23.40;55.80;;;;;;6247058;28;20060;-75
2023/05/29 11:38:52;;;;;;;6.27;3.17;;;23.40;54.60;;;;;;6250178;28;20046;-74
2023/05/29 11:41:55;;;;;;;7.03;3.20;;;23.40;54.90;;;;;;6251354;28;20049;-74
2023/05/29 11:45:10;;;;;;;;;;;23.50;56.40;;;;;;6252132;28;20053;-75
2023/05/29 11:48:12;;;;;;;7.90;3.40;;;23.60;55.70;;;;;;6251490;28;19925;-75
2023/05/29 11:51:15;;;;;;;7.55;3.67;;;23.60;54.20;;;;;;6251432;28;20045;-75
2023/05/29 11:54:20;;;;;;;6.45;3.30;;;23.70;56.10;;;;;;6251420;28;20110;-74
2023/05/29 11:57:23;;;;;;;6.50;3.38;;;23.80;55.70;;;;;;6251570;28;20050;-73
2023/05/29 12:00:25;;;;;;;6.73;3.23;;;23.90;53.60;;;;;;6251282;28;20052;-73
2023/05/29 12:03:27;;;;;;;7.72;3.13;;;24.00;52.00;;;;;;6251121;28;20053;-75
2023/05/29 12:06:33;;;;;;;7.47;3.33;;;24.00;52.30;;;;;;6251219;28;20060;-75
2023/05/29 12:09:37;;;;;;;5.80;3.28;;;24.10;51.30;;;;;;6234773;28;20055;-75
2023/05/29 12:12:39;;;;;;;6.82;3.25;;;24.20;52.80;;;;;;6253123;28;20479;-74
2023/05/29 12:15:41;;;;;;;7.50;3.22;;;24.20;52.10;;;;;;6252690;28;20058;-76
2023/05/29 12:18:43;;;;;;;5.22;3.05;;;24.40;52.90;;;;;;6251482;28;20120;-76
2023/05/29 12:21:45;;;;;;;5.65;2.83;;;24.40;51.70;;;;;;6251113;28;20060;-74
2023/05/29 12:24:48;;;;;;;7.07;3.25;;;24.50;52.40;;;;;;6250717;28;20049;-74
2023/05/29 12:27:50;;;;;;;;;;;24.60;50.30;;;;;;6251057;28;20392;-74
2023/05/29 12:30:59;;;;;;;6.22;3.47;;;24.80;51.90;;;;;;6250937;28;20414;-73
2023/05/29 12:34:02;;;;;;;6.38;3.40;;;24.90;50.60;;;;;;6251180;28;20053;-75
2023/05/29 12:37:09;;;;;;;5.65;3.22;;;24.90;49.60;;;;;;6250396;28;20053;-73
2023/05/29 12:40:16;;;;;;;5.57;3.05;;;25.10;49.40;;;;;;6250223;28;20068;-77
2023/05/29 12:43:18;;;;;;;7.95;3.40;;;25.20;49.50;;;;;;6250586;28;20071;-73
2023/05/29 12:46:20;;;;;;;6.40;3.40;;;25.30;48.60;;;;;;6250273;28;20041;-75
2023/05/29 12:49:25;;;;;;;6.03;3.20;;;25.40;48.50;;;;;;6249151;28;20133;-73
2023/05/29 12:52:27;;;;;;;6.00;3.60;;;25.50;47.80;;;;;;6249933;28;20048;-73
2023/05/29 12:55:33;;;;;;;8.27;3.42;;;25.50;45.70;;;;;;6249914;28;20056;-74
2023/05/29 12:58:35;;;;;;;6.55;3.67;;;25.70;46.70;;;;;;6250045;28;20045;-76
2023/05/29 13:01:38;;;;;;;5.63;3.10;;;25.80;47.40;;;;;;6249812;28;20049;-73
2023/05/29 13:04:40;;;;;;;5.90;3.33;;;25.90;46.60;;;;;;6249705;28;20459;-73
2023/05/29 13:07:42;;;;;;;5.97;3.17;;;25.90;45.80;;;;;;6249412;28;20057;-77
2023/05/29 13:10:45;;;;;;;6.47;3.42;;;25.90;46.20;;;;;;6249609;28;20451;-75
2023/05/29 13:13:47;;;;;;;6.32;3.50;;;25.90;44.80;;;;;;6249397;28;20406;-73
2023/05/29 13:16:49;;;;;;;7.25;3.30;;;26.10;46.30;;;;;;6249480;28;20562;-75
2023/05/29 13:19:51;;;;;;;6.80;3.70;;;26.20;44.40;;;;;;6252234;28;20470;-74
2023/05/29 13:22:54;;;;;;;6.75;3.63;;;26.20;45.90;;;;;;6249386;28;20053;-75
2023/05/29 13:25:57;;;;;;;;;;;26.40;46.00;;;;;;6249523;28;20427;-74
2023/05/29 13:28:59;;;;;;;6.97;3.63;;;26.60;46.00;;;;;;6250927;28;19920;-75
2023/05/29 13:32:01;;;;;;;5.25;3.20;;;26.50;46.00;;;;;;6252532;28;20466;-75
2023/05/29 13:35:05;;;;;;;6.77;3.73;;;26.50;45.80;;;;;;6257484;28;20057;-73
2023/05/29 13:38:07;;;;;;;5.95;3.55;;;26.60;45.80;;;;;;6258470;28;20049;-74
2023/05/29 13:41:10;;;;;;;6.07;3.30;;;26.80;44.50;;;;;;6255718;28;20505;-76
2023/05/29 13:44:12;;;;;;;7.32;3.67;;;26.90;42.90;;;;;;6250341;28;20045;-74
2023/05/29 13:47:14;;;;;;;5.38;3.28;;;26.80;42.50;;;;;;6248862;28;20462;-75
2023/05/29 13:50:16;;;;;;;5.97;3.60;;;26.80;42.80;;;;;;6248480;28;20041;-76
2023/05/29 13:53:18;;;;;;;7.03;3.63;;;27.00;44.20;;;;;;6248427;28;20658;-75
2023/05/29 13:56:22;;;;;;;8.10;4.63;;;27.20;42.90;;;;;;6248363;28;20475;-73
2023/05/29 13:59:24;;;;;;;7.45;4.57;;;27.40;43.60;;;;;;6248354;28;20068;-73
2023/05/29 14:02:26;;;;;;;6.95;3.58;;;27.60;44.60;;;;;;6248345;28;20030;-75
2023/05/29 14:05:28;;;;;;;6.33;3.73;;;27.70;44.30;;;;;;6248495;28;20158;-73
2023/05/29 14:08:30;;;;;;;8.00;3.90;;;27.60;44.00;;;;;;6248533;28;20300;-74
2023/05/29 14:11:35;;;;;;;8.02;3.35;;;27.70;43.30;;;;;;6248375;28;20053;-77
2023/05/29 14:14:37;;;;;;;7.22;3.42;;;27.70;43.30;;;;;;6248289;28;20061;-76
2023/05/29 14:17:39;;;;;;;8.17;3.63;;;27.90;43.40;;;;;;6248405;28;20129;-75
2023/05/29 14:20:41;;;;;;;6.80;3.92;;;27.90;44.30;;;;;;6247994;28;20048;-76
2023/05/29 14:23:42;;;;;;;7.40;3.47;;;28.20;44.00;;;;;;6248096;28;20041;-75
2023/05/29 14:26:46;;;;;;;5.78;3.47;;;28.30;44.00;;;;;;6247716;28;20395;-75
2023/05/29 14:29:48;;;;;;;7.82;4.25;;;28.60;43.90;;;;;;6248299;28;20045;-77
2023/05/29 14:32:50;;;;;;;7.30;3.60;;;28.50;43.10;;;;;;6248010;28;20052;-74
2023/05/29 14:35:52;;;;;;;6.63;3.55;;;28.30;42.70;;;;;;6248436;28;20057;-75
2023/05/29 14:38:54;;;;;;;6.67;3.23;;;28.20;42.40;;;;;;6248539;28;20054;-74
2023/05/29 14:41:57;;;;;;;5.65;3.20;;;28.40;43.50;;;;;;6249441;28;20056;-75
2023/05/29 14:45:00;;;;;;;6.20;3.40;;;28.60;43.90;;;;;;6248496;28;20156;-74
2023/05/29 14:48:01;;;;;;;5.65;3.30;;;28.60;43.30;;;;;;6248054;28;20259;-73
2023/05/29 14:51:03;;;;;;;6.53;3.30;;;28.60;45.20;;;;;;6247906;28;20053;-75
2023/05/29 14:54:05;;;;;;;6.30;3.08;;;29.00;43.70;;;;;;6247648;28;20139;-76
2023/05/29 14:57:09;;;;;;;5.77;3.37;;;28.90;42.50;;;;;;6247836;28;20045;-74
2023/05/29 15:00:12;;;;;;;9.00;3.95;;;29.30;43.40;;;;;;6247970;28;20390;-74
2023/05/29 15:03:13;;;;;;;;;;;29.50;42.40;;;;;;6248516;28;20053;-76
2023/05/29 15:06:15;;;;;;;7.95;4.80;;;29.50;40.30;;;;;;6247624;28;20254;-74
2023/05/29 15:09:17;;;;;;;7.10;4.20;;;29.70;41.90;;;;;;6248020;28;20057;-74
2023/05/29 15:12:20;;;;;;;8.23;3.97;;;30.00;41.30;;;;;;6248372;28;20049;-74
2023/05/29 15:15:22;;;;;;;6.53;3.72;;;29.90;40.20;;;;;;6252452;28;20053;-74
2023/05/29 15:18:24;;;;;;;6.47;3.40;;;30.10;41.70;;;;;;6252185;28;20050;-74
2023/05/29 15:21:26;;;;;;;7.13;3.20;;;30.30;41.00;;;;;;6251976;28;20418;-72
2023/05/29 15:24:27;;;;;;;5.47;3.37;;;30.00;41.00;;;;;;6252235;28;20053;-76
2023/05/29 15:27:32;;;;;;;6.45;3.30;;;30.20;41.10;;;;;;6251785;28;20483;-73
2023/05/29 15:30:34;;;;;;;5.30;3.05;;;30.30;40.40;;;;;;6251503;28;20521;-75
2023/05/29 15:33:36;;;;;;;4.78;2.90;;;30.60;38.80;;;;;;6251410;28;20045;-75
2023/05/29 15:36:39;;;;;;;6.07;3.72;;;30.80;39.80;;;;;;6251431;28;20050;-75
2023/05/29 15:39:41;;;;;;;5.40;3.60;;;31.00;39.40;;;;;;6251539;28;20049;-75
2023/05/29 15:42:45;;;;;;;6.47;3.90;;;31.30;38.40;;;;;;6251945;28;20056;-76
2023/05/29 15:45:48;;;;;;;6.40;3.40;;;31.40;38.00;;;;;;6251897;28;20045;-74
2023/05/29 15:48:50;;;;;;;5.72;3.33;;;31.40;38.20;;;;;;6251700;28;20080;-74
2023/05/29 15:51:52;;;;;;;7.10;3.20;;;31.40;38.30;;;;;;6251674;28;20507;-74